createdAt,value
2017-06-05T00:01:24.092Z,16.10
2017-06-05T00:03:52.164Z,16.00
2017-06-05T00:06:20.250Z,16.00
2017-06-05T00:08:48.313Z,16.00
2017-06-05T00:11:16.367Z,16.00
2017-06-05T00:13:44.492Z,16.00
2017-06-05T00:16:12.564Z,16.00
2017-06-05T00:18:41.407Z,15.90
2017-06-05T00:21:09.486Z,15.90
2017-06-05T00:23:37.554Z,15.80
2017-06-05T00:26:05.618Z,15.70
2017-06-05T00:28:33.680Z,15.80
2017-06-05T00:31:01.783Z,15.70
2017-06-05T00:33:29.831Z,15.60
2017-06-05T00:35:57.885Z,15.60
2017-06-05T00:38:25.987Z,15.60
2017-06-05T00:40:54.098Z,15.60
2017-06-05T00:43:22.171Z,15.60
2017-06-05T00:45:50.226Z,15.60
2017-06-05T00:48:19.074Z,15.60
2017-06-05T00:50:47.142Z,15.50
2017-06-05T00:53:15.201Z,15.60
2017-06-05T00:55:43.295Z,15.60
2017-06-05T00:58:11.350Z,15.50
2017-06-05T01:00:39.459Z,15.60
2017-06-05T01:03:07.514Z,15.60
2017-06-05T01:05:35.566Z,15.60
2017-06-05T01:08:03.650Z,15.70
2017-06-05T01:10:31.758Z,15.70
2017-06-05T01:12:59.806Z,15.70
2017-06-05T01:15:27.875Z,15.60
2017-06-05T01:17:55.931Z,15.50
2017-06-05T01:20:24.009Z,15.40
2017-06-05T01:22:52.064Z,15.40
2017-06-05T01:25:20.113Z,15.30
2017-06-05T01:27:48.194Z,15.40
2017-06-05T01:30:16.314Z,15.30
2017-06-05T01:32:44.371Z,15.30
2017-06-05T01:35:12.413Z,15.30
2017-06-05T01:37:40.465Z,15.30
2017-06-05T01:40:08.554Z,15.30
2017-06-05T01:42:36.605Z,15.30
2017-06-05T01:45:05.424Z,15.30
2017-06-05T01:47:33.505Z,15.30
2017-06-05T01:50:01.568Z,15.30
2017-06-05T01:52:29.617Z,15.30
2017-06-05T01:54:57.701Z,15.30
2017-06-05T01:57:25.753Z,15.30
2017-06-05T01:59:53.810Z,15.10
2017-06-05T02:02:21.924Z,15.00
2017-06-05T02:04:49.975Z,15.00
2017-06-05T02:07:18.028Z,15.00
2017-06-05T02:09:46.875Z,14.90
2017-06-05T02:12:14.994Z,14.90
2017-06-05T02:14:43.090Z,15.00
2017-06-05T02:17:11.300Z,14.90
2017-06-05T02:19:39.450Z,14.90
2017-06-05T02:22:07.571Z,14.80
2017-06-05T02:24:35.646Z,14.80
2017-06-05T02:27:03.677Z,14.70
2017-06-05T02:29:31.766Z,14.80
2017-06-05T02:31:59.819Z,14.70
2017-06-05T02:34:27.919Z,14.60
2017-06-05T02:36:55.988Z,14.50
2017-06-05T02:39:24.062Z,14.50
2017-06-05T02:41:52.120Z,14.50
2017-06-05T02:44:20.173Z,14.50
2017-06-05T02:46:48.265Z,14.50
2017-06-05T02:49:16.315Z,14.50
2017-06-05T02:51:44.379Z,14.50
2017-06-05T02:54:12.454Z,14.50
2017-06-05T02:56:40.531Z,14.50
2017-06-05T02:59:08.602Z,14.40
2017-06-05T03:01:36.659Z,14.30
2017-06-05T03:04:04.733Z,14.20
2017-06-05T03:06:33.138Z,14.20
2017-06-05T03:09:01.234Z,14.10
2017-06-05T03:11:29.283Z,14.10
2017-06-05T03:13:57.359Z,14.20
2017-06-05T03:16:25.414Z,14.30
2017-06-05T03:18:53.533Z,14.40
2017-06-05T03:21:21.580Z,14.40
2017-06-05T03:23:49.630Z,14.50
2017-06-05T03:26:17.777Z,14.50
2017-06-05T03:28:45.827Z,14.50
2017-06-05T03:31:13.906Z,14.40
2017-06-05T03:33:42.913Z,14.40
2017-06-05T03:36:11.745Z,14.50
2017-06-05T03:38:39.798Z,14.50
2017-06-05T03:41:07.878Z,14.50
2017-06-05T03:43:35.977Z,14.50
2017-06-05T03:46:04.051Z,14.50
2017-06-05T03:48:32.099Z,14.70
2017-06-05T03:51:00.159Z,14.60
2017-06-05T03:53:28.234Z,14.60
2017-06-05T03:55:56.294Z,14.50
2017-06-05T03:58:24.386Z,14.40
2017-06-05T04:00:52.438Z,14.50
2017-06-05T04:03:20.485Z,14.60
2017-06-05T04:05:48.615Z,14.70
2017-06-05T04:08:16.650Z,14.80
2017-06-05T04:10:44.697Z,14.90
2017-06-05T04:13:13.615Z,15.10
2017-06-05T04:15:41.750Z,15.10
2017-06-05T04:18:09.846Z,15.10
2017-06-05T04:20:38.730Z,15.10
2017-06-05T04:23:06.898Z,15.10
2017-06-05T04:25:34.990Z,15.10
2017-06-05T04:28:03.859Z,15.20
2017-06-05T04:30:32.737Z,15.10
2017-06-05T04:35:52.914Z,15.20
2017-06-05T04:38:21.072Z,15.30
2017-06-05T04:40:49.195Z,15.50
2017-06-05T04:43:17.354Z,15.50
2017-06-05T04:45:45.369Z,15.60
2017-06-05T04:48:13.426Z,15.80
2017-06-05T04:50:41.505Z,15.90
2017-06-05T04:53:10.321Z,15.80
2017-06-05T04:55:38.383Z,15.70
2017-06-05T04:58:06.589Z,15.80
2017-06-05T05:00:34.750Z,15.80
2017-06-05T05:03:02.925Z,15.90
2017-06-05T05:05:31.098Z,15.90
2017-06-05T05:07:59.183Z,16.00
2017-06-05T05:10:27.241Z,16.00
2017-06-05T05:12:55.310Z,16.10
2017-06-05T05:15:23.493Z,16.20
2017-06-05T05:17:51.571Z,16.20
2017-06-05T05:20:19.634Z,16.20
2017-06-05T05:22:47.802Z,16.20
2017-06-05T05:25:15.878Z,16.20
2017-06-05T05:27:43.950Z,16.10
2017-06-05T05:30:12.026Z,16.30
2017-06-05T05:32:40.109Z,16.30
2017-06-05T05:35:08.270Z,16.40
2017-06-05T05:37:36.437Z,16.50
2017-06-05T05:40:04.493Z,16.60
2017-06-05T05:42:32.960Z,16.70
2017-06-05T05:45:01.806Z,16.90
2017-06-05T05:47:29.875Z,16.90
2017-06-05T05:49:58.025Z,16.80
2017-06-05T05:52:26.207Z,16.70
2017-06-05T05:54:54.277Z,16.90
2017-06-05T05:57:22.341Z,17.20
2017-06-05T05:59:50.523Z,17.10
2017-06-05T06:02:18.698Z,17.00
2017-06-05T06:04:46.786Z,17.10
2017-06-05T06:07:14.837Z,17.10
2017-06-05T06:09:43.014Z,17.40
2017-06-05T06:12:11.089Z,17.60
2017-06-05T06:14:39.162Z,17.80
2017-06-05T06:17:07.240Z,17.90
2017-06-05T06:19:35.297Z,17.90
2017-06-05T06:22:03.375Z,17.90
2017-06-05T06:24:31.554Z,17.80
2017-06-05T06:26:59.613Z,17.90
2017-06-05T06:29:27.669Z,17.90
2017-06-05T06:31:55.866Z,18.00
2017-06-05T06:34:23.944Z,17.90
2017-06-05T06:36:52.009Z,17.90
2017-06-05T06:39:20.189Z,18.30
2017-06-05T06:41:48.262Z,18.60
2017-06-05T06:44:16.430Z,18.80
2017-06-05T06:46:44.526Z,18.70
2017-06-05T06:49:12.678Z,18.60
2017-06-05T06:51:40.762Z,18.70
2017-06-05T06:54:08.820Z,18.60
2017-06-05T06:56:36.921Z,18.80
2017-06-05T06:59:05.002Z,18.90
2017-06-05T07:01:33.150Z,18.90
2017-06-05T07:04:01.210Z,19.10
2017-06-05T07:06:29.413Z,19.30
2017-06-05T07:08:57.553Z,19.60
2017-06-05T07:11:25.630Z,19.60
2017-06-05T07:13:53.803Z,19.60
2017-06-05T07:16:21.929Z,19.70
2017-06-05T07:18:50.773Z,19.80
2017-06-05T07:21:19.146Z,19.80
2017-06-05T07:23:47.217Z,19.80
2017-06-05T07:26:15.269Z,19.60
2017-06-05T07:28:43.345Z,19.90
2017-06-05T07:31:12.761Z,19.90
2017-06-05T07:33:40.838Z,19.90
2017-06-05T07:36:08.944Z,20.10
2017-06-05T07:38:36.995Z,19.90
2017-06-05T07:41:05.059Z,20.10
2017-06-05T07:43:33.129Z,20.40
2017-06-05T07:46:01.198Z,20.40
2017-06-05T07:48:30.115Z,20.70
2017-06-05T07:50:58.242Z,20.70
2017-06-05T07:53:26.289Z,20.80
2017-06-05T07:55:55.120Z,20.70
2017-06-05T07:58:23.194Z,20.70
2017-06-05T08:00:51.250Z,20.70
2017-06-05T08:03:19.314Z,21.00
2017-06-05T08:05:47.397Z,21.40
2017-06-05T08:08:15.469Z,21.00
2017-06-05T08:10:43.522Z,21.20
2017-06-05T08:13:12.337Z,21.90
2017-06-05T08:15:40.412Z,21.80
2017-06-05T08:18:08.469Z,22.00
2017-06-05T08:20:36.521Z,22.10
2017-06-05T08:23:05.430Z,22.30
2017-06-05T08:25:33.489Z,22.30
2017-06-05T08:28:01.547Z,22.10
2017-06-05T08:30:30.393Z,22.20
2017-06-05T08:32:58.446Z,22.20
2017-06-05T08:35:26.509Z,22.40
2017-06-05T08:37:54.897Z,22.70
2017-06-05T08:40:22.950Z,22.70
2017-06-05T08:42:51.005Z,22.60
2017-06-05T08:45:19.837Z,22.80
2017-06-05T08:47:47.905Z,22.80
2017-06-05T08:50:15.961Z,22.90
2017-06-05T08:52:44.038Z,23.20
2017-06-05T08:55:12.089Z,23.20
2017-06-05T08:57:40.973Z,23.40
2017-06-05T09:00:09.034Z,23.40
2017-06-05T09:02:37.106Z,23.50
2017-06-05T09:05:05.242Z,23.30
2017-06-05T09:07:33.289Z,23.50
2017-06-05T09:10:01.337Z,23.30
2017-06-05T09:12:30.294Z,23.40
2017-06-05T09:14:58.341Z,23.30
2017-06-05T09:17:26.424Z,23.50
2017-06-05T09:19:54.618Z,23.60
2017-06-05T09:22:22.670Z,23.90
2017-06-05T09:24:50.818Z,23.80
2017-06-05T09:27:18.899Z,23.90
2017-06-05T09:29:51.866Z,24.00
2017-06-05T09:32:20.850Z,23.80
2017-06-05T09:34:49.258Z,24.00
2017-06-05T09:37:17.314Z,24.50
2017-06-05T09:39:45.418Z,24.70
2017-06-05T09:42:13.494Z,24.40
2017-06-05T09:44:41.551Z,24.30
2017-06-05T09:47:09.613Z,24.20
2017-06-05T09:49:39.282Z,24.60
2017-06-05T09:52:08.129Z,25.10
2017-06-05T09:54:36.230Z,25.00
2017-06-05T09:57:04.369Z,25.10
2017-06-05T09:59:32.437Z,25.10
2017-06-05T10:02:00.519Z,25.00
2017-06-05T10:04:29.219Z,25.10
2017-06-05T10:06:57.265Z,25.30
2017-06-05T10:09:25.345Z,25.20
2017-06-05T10:11:53.946Z,25.50
2017-06-05T10:14:22.007Z,25.50
2017-06-05T10:16:50.075Z,25.80
2017-06-05T10:19:18.243Z,25.70
2017-06-05T10:21:46.317Z,25.10
2017-06-05T10:24:14.441Z,24.80
2017-06-05T10:26:42.562Z,25.00
2017-06-05T10:29:10.631Z,25.20
2017-06-05T10:31:38.726Z,25.10
2017-06-05T10:34:06.898Z,25.90
2017-06-05T10:36:34.963Z,25.80
2017-06-05T10:39:03.037Z,25.70
2017-06-05T10:41:31.102Z,25.50
2017-06-05T10:43:59.163Z,25.10
2017-06-05T10:46:27.242Z,25.40
2017-06-05T10:48:55.329Z,25.40
2017-06-05T10:51:23.430Z,25.20
2017-06-05T10:53:51.598Z,25.30
2017-06-05T10:56:19.741Z,25.00
2017-06-05T10:58:47.837Z,25.10
2017-06-05T11:01:15.917Z,25.00
2017-06-05T11:03:43.996Z,24.80
2017-06-05T11:06:12.056Z,24.90
2017-06-05T11:08:40.138Z,25.10
2017-06-05T11:11:08.190Z,25.10
2017-06-05T11:13:36.239Z,25.20
2017-06-05T11:16:04.329Z,25.30
2017-06-05T11:18:32.381Z,25.20
2017-06-05T11:21:00.494Z,25.30
2017-06-05T11:23:28.573Z,25.10
2017-06-05T11:25:57.393Z,25.00
2017-06-05T11:28:25.496Z,25.00
2017-06-05T11:30:53.669Z,25.10
2017-06-05T11:33:21.746Z,25.00
2017-06-05T11:35:49.802Z,25.20
2017-06-05T11:38:17.929Z,25.10
2017-06-05T11:40:45.978Z,25.40
2017-06-05T11:43:14.120Z,25.40
2017-06-05T11:45:42.206Z,25.60
2017-06-05T11:48:10.286Z,25.70
2017-06-05T11:50:38.346Z,26.00
2017-06-05T11:53:06.485Z,25.90
2017-06-05T11:55:34.550Z,26.10
2017-06-05T11:58:03.357Z,26.00
2017-06-05T12:00:31.433Z,26.00
2017-06-05T12:02:59.490Z,26.20
2017-06-05T12:05:27.546Z,26.20
2017-06-05T12:07:58.162Z,26.60
2017-06-05T12:10:26.242Z,26.60
2017-06-05T12:12:55.081Z,26.80
2017-06-05T12:15:23.170Z,26.80
2017-06-05T12:17:51.336Z,26.70
2017-06-05T12:20:19.389Z,26.90
2017-06-05T12:22:47.578Z,27.10
2017-06-05T12:25:15.653Z,27.90
2017-06-05T12:27:43.714Z,28.50
2017-06-05T12:30:11.794Z,29.20
2017-06-05T12:32:39.867Z,29.60
2017-06-05T12:35:07.935Z,29.40
2017-06-05T12:37:36.053Z,29.20
2017-06-05T12:40:04.133Z,29.70
2017-06-05T12:42:33.016Z,29.50
2017-06-05T12:45:01.133Z,29.50
2017-06-05T12:47:29.214Z,29.40
2017-06-05T12:49:57.314Z,29.70
2017-06-05T12:52:25.373Z,30.20
2017-06-05T12:54:53.538Z,30.40
2017-06-05T12:57:21.641Z,30.40
2017-06-05T12:59:49.708Z,30.60
2017-06-05T13:02:17.789Z,31.00
2017-06-05T13:04:46.625Z,31.30
2017-06-05T13:07:14.677Z,31.30
2017-06-05T13:09:42.797Z,31.20
2017-06-05T13:12:10.965Z,30.30
2017-06-05T13:14:39.009Z,30.50
2017-06-05T13:17:07.817Z,30.90
2017-06-05T13:19:35.853Z,31.00
2017-06-05T13:22:03.953Z,30.90
2017-06-05T13:24:32.057Z,30.30
2017-06-05T13:27:00.214Z,30.20
2017-06-05T13:29:28.274Z,30.50
2017-06-05T13:31:56.449Z,30.80
2017-06-05T13:34:24.541Z,30.90
2017-06-05T13:36:52.693Z,30.90
2017-06-05T13:39:20.870Z,30.50
2017-06-05T13:41:48.922Z,30.50
2017-06-05T13:44:16.977Z,30.40
2017-06-05T13:46:45.058Z,30.30
2017-06-05T13:49:13.153Z,30.00
2017-06-05T13:51:41.284Z,29.50
2017-06-05T13:54:09.349Z,29.90
2017-06-05T13:56:37.401Z,30.40
2017-06-05T13:59:05.569Z,30.30
2017-06-05T14:01:33.735Z,30.30
2017-06-05T14:04:01.803Z,30.40
2017-06-05T14:06:29.894Z,30.20
2017-06-05T14:08:57.969Z,30.20
2017-06-05T14:11:26.025Z,30.30
2017-06-05T14:13:54.085Z,30.60
2017-06-05T14:16:22.174Z,30.50
2017-06-05T14:18:50.230Z,30.60
2017-06-05T14:21:18.282Z,31.40
2017-06-05T14:23:46.433Z,31.50
2017-06-05T14:26:15.258Z,30.70
2017-06-05T14:28:43.529Z,30.70
2017-06-05T14:31:11.602Z,31.10
2017-06-05T14:33:39.681Z,30.80
2017-06-05T14:36:07.953Z,30.60
2017-06-05T14:38:36.024Z,31.00
2017-06-05T14:41:04.127Z,31.20
2017-06-05T14:43:32.277Z,30.40
2017-06-05T14:46:00.325Z,30.30
2017-06-05T14:48:28.381Z,30.70
2017-06-05T14:50:57.290Z,30.80
2017-06-05T14:53:25.385Z,30.80
2017-06-05T14:55:53.537Z,30.50
2017-06-05T14:58:21.598Z,29.40
2017-06-05T15:00:49.650Z,28.30
2017-06-05T15:03:18.591Z,27.20
2017-06-05T15:05:46.650Z,27.20
2017-06-05T15:08:14.745Z,28.00
2017-06-05T15:10:42.793Z,28.40
2017-06-05T15:13:10.889Z,28.50
2017-06-05T15:15:38.977Z,28.20
2017-06-05T15:18:07.126Z,27.50
2017-06-05T15:20:35.218Z,26.70
2017-06-05T15:23:03.369Z,26.10
2017-06-05T15:25:31.417Z,25.80
2017-06-05T15:27:59.611Z,25.70
2017-06-05T15:30:27.666Z,25.70
2017-06-05T15:32:55.277Z,25.50
2017-06-05T15:35:22.800Z,25.30
2017-06-05T15:37:50.778Z,25.10
2017-06-05T15:40:18.834Z,25.00
2017-06-05T15:42:47.213Z,25.70
2017-06-05T15:45:14.721Z,25.70
2017-06-05T15:47:42.225Z,25.70
2017-06-05T15:50:09.753Z,25.20
2017-06-05T15:52:37.261Z,25.30
2017-06-05T15:55:04.843Z,25.20
2017-06-05T15:57:32.357Z,25.20
2017-06-05T15:59:59.920Z,25.40
2017-06-05T16:02:27.893Z,26.00
2017-06-05T16:04:55.973Z,26.60
2017-06-05T16:07:24.064Z,26.80
2017-06-05T16:09:51.691Z,26.60
2017-06-05T16:12:19.265Z,26.20
2017-06-05T16:14:46.768Z,26.10
2017-06-05T16:17:15.065Z,26.40
2017-06-05T16:19:43.469Z,25.90
2017-06-05T16:22:11.756Z,25.40
2017-06-05T16:24:39.366Z,25.40
2017-06-05T16:27:06.895Z,25.00
2017-06-05T16:29:34.475Z,24.50
2017-06-05T16:32:02.010Z,24.10
2017-06-05T16:34:29.510Z,23.80
2017-06-05T16:36:57.033Z,23.50
2017-06-05T16:39:24.558Z,23.40
2017-06-05T16:41:52.528Z,23.30
2017-06-05T16:44:20.606Z,23.00
2017-06-05T16:46:48.682Z,22.90
2017-06-05T16:49:16.769Z,22.90
2017-06-05T16:51:44.870Z,22.90
2017-06-05T16:54:12.927Z,22.90
2017-06-05T16:56:40.994Z,22.80
2017-06-05T16:59:09.161Z,22.80
2017-06-05T17:01:37.237Z,22.80
2017-06-05T17:04:04.961Z,22.70
2017-06-05T17:06:33.687Z,22.80
2017-06-05T17:09:01.294Z,22.80
2017-06-05T17:11:29.320Z,22.90
2017-06-05T17:13:57.414Z,23.00
2017-06-05T17:16:25.457Z,23.20
2017-06-05T17:18:53.529Z,23.10
2017-06-05T17:21:21.592Z,23.00
2017-06-05T17:23:49.697Z,23.00
2017-06-05T17:26:17.309Z,23.00
2017-06-05T17:28:44.812Z,22.90
2017-06-05T17:31:12.540Z,22.80
2017-06-05T17:33:40.093Z,22.70
2017-06-05T17:36:08.395Z,22.30
2017-06-05T17:38:35.954Z,22.30
2017-06-05T17:41:03.623Z,22.20
2017-06-05T17:43:31.145Z,22.10
2017-06-05T17:45:59.589Z,22.00
2017-06-05T17:48:27.137Z,22.00
2017-06-05T17:50:55.094Z,22.00
2017-06-05T17:53:23.261Z,22.10
2017-06-05T17:55:51.341Z,22.10
2017-06-05T17:58:19.514Z,22.00
2017-06-05T18:00:47.567Z,22.00
2017-06-05T18:03:15.646Z,21.90
2017-06-05T18:05:43.739Z,22.00
2017-06-05T18:08:11.803Z,21.90
2017-06-05T18:10:39.855Z,21.90
2017-06-05T18:13:07.951Z,21.80
2017-06-05T18:15:36.005Z,21.70
2017-06-05T18:18:04.081Z,21.70
2017-06-05T18:20:32.254Z,21.60
2017-06-05T18:23:00.313Z,21.50
2017-06-05T18:25:28.370Z,21.40
2017-06-05T18:27:56.441Z,21.40
2017-06-05T18:30:24.529Z,21.40
2017-06-05T18:32:52.618Z,21.40
2017-06-05T18:35:20.703Z,21.30
2017-06-05T18:37:48.749Z,21.20
2017-06-05T18:40:16.973Z,21.20
2017-06-05T18:42:45.039Z,21.20
2017-06-05T18:45:13.089Z,21.20
2017-06-05T18:47:41.173Z,21.10
2017-06-05T18:50:09.230Z,20.90
2017-06-05T18:52:37.283Z,20.80
2017-06-05T18:55:05.465Z,20.60
2017-06-05T18:57:33.541Z,20.50
2017-06-05T19:00:01.129Z,20.50
2017-06-05T19:02:28.652Z,20.40
2017-06-05T19:04:56.161Z,20.30
2017-06-05T19:07:23.687Z,20.20
2017-06-05T19:09:51.231Z,20.00
2017-06-05T19:12:18.732Z,19.90
2017-06-05T19:14:46.250Z,19.80
2017-06-05T19:17:13.781Z,19.70
2017-06-05T19:19:41.287Z,19.50
2017-06-05T19:22:08.785Z,19.40
2017-06-05T19:24:36.818Z,19.20
2017-06-05T19:27:04.329Z,19.20
2017-06-05T19:29:32.623Z,19.10
2017-06-05T19:32:00.918Z,19.00
2017-06-05T19:34:28.429Z,19.00
2017-06-05T19:36:56.701Z,18.90
2017-06-05T19:39:25.009Z,18.80
2017-06-05T19:41:52.517Z,18.80
2017-06-05T19:44:20.031Z,18.70
2017-06-05T19:46:47.549Z,18.60
2017-06-05T19:49:15.049Z,18.50
2017-06-05T19:51:42.585Z,18.50
2017-06-05T19:54:10.553Z,18.50
2017-06-05T19:56:38.646Z,18.70
2017-06-05T19:59:06.768Z,18.80
2017-06-05T20:01:34.923Z,18.90
2017-06-05T20:04:03.045Z,19.00
2017-06-05T20:06:31.143Z,18.90
2017-06-05T20:08:59.201Z,18.80
2017-06-05T20:11:27.310Z,18.80
2017-06-05T20:13:55.344Z,18.70
2017-06-05T20:16:23.438Z,18.70
2017-06-05T20:18:51.609Z,18.80
2017-06-05T20:21:19.682Z,18.80
2017-06-05T20:23:47.753Z,18.80
2017-06-05T20:26:15.903Z,18.70
2017-06-05T20:28:44.106Z,18.60
2017-06-05T20:31:13.411Z,18.70
2017-06-05T20:33:41.477Z,18.70
2017-06-05T20:36:09.529Z,18.60
2017-06-05T20:38:37.626Z,18.50
2017-06-05T20:41:05.793Z,18.30
2017-06-05T20:43:33.874Z,18.20
2017-06-05T20:46:01.922Z,18.30
2017-06-05T20:48:30.113Z,18.30
2017-06-05T20:50:58.186Z,18.10
2017-06-05T20:53:26.271Z,18.00
2017-06-05T20:55:54.353Z,18.00
2017-06-05T20:58:22.401Z,18.00
2017-06-05T21:00:50.457Z,17.80
2017-06-05T21:03:18.537Z,18.00
2017-06-05T21:05:46.622Z,18.00
2017-06-05T21:08:14.689Z,17.90
2017-06-05T21:10:42.863Z,18.00
2017-06-05T21:13:10.943Z,18.10
2017-06-05T21:15:39.110Z,18.10
2017-06-05T21:18:07.181Z,18.20
2017-06-05T21:20:35.246Z,18.10
2017-06-05T21:23:03.427Z,18.00
2017-06-05T21:25:31.486Z,17.90
2017-06-05T21:27:59.554Z,17.80
2017-06-05T21:30:27.642Z,17.80
2017-06-05T21:32:55.709Z,17.80
2017-06-05T21:35:23.787Z,17.70
2017-06-05T21:37:51.941Z,17.60
2017-06-05T21:40:20.034Z,17.70
2017-06-05T21:42:48.201Z,17.40
2017-06-05T21:45:16.277Z,17.30
2017-06-05T21:47:44.366Z,17.40
2017-06-05T21:50:12.757Z,17.30
2017-06-05T21:52:41.209Z,17.40
2017-06-05T21:55:09.997Z,17.40
2017-06-05T21:57:38.169Z,17.40
2017-06-05T22:00:06.249Z,17.40
2017-06-05T22:02:34.322Z,17.30
2017-06-05T22:05:02.485Z,17.30
2017-06-05T22:07:30.566Z,17.30
2017-06-05T22:09:58.743Z,17.10
2017-06-05T22:12:26.806Z,17.00
2017-06-05T22:14:54.930Z,16.80
2017-06-05T22:17:23.020Z,16.90
2017-06-05T22:19:51.846Z,16.90
2017-06-05T22:22:20.013Z,16.90
2017-06-05T22:24:48.090Z,16.80
2017-06-05T22:27:16.165Z,16.80
2017-06-05T22:29:44.337Z,16.80
2017-06-05T22:32:12.405Z,16.90
2017-06-05T22:34:40.487Z,16.90
2017-06-05T22:37:08.557Z,16.90
2017-06-05T22:39:36.625Z,16.70
2017-06-05T22:42:04.702Z,16.70
2017-06-05T22:44:32.877Z,16.70
2017-06-05T22:47:00.974Z,16.60
2017-06-05T22:49:29.101Z,16.50
2017-06-05T22:51:57.153Z,16.60
2017-06-05T22:54:26.082Z,16.60
2017-06-05T22:56:54.493Z,16.60
2017-06-05T22:59:22.542Z,16.30
2017-06-05T23:01:50.641Z,16.30
2017-06-05T23:04:18.760Z,16.30
2017-06-05T23:06:46.849Z,16.30
2017-06-05T23:09:14.913Z,16.20
2017-06-05T23:11:43.093Z,16.10
2017-06-05T23:14:11.178Z,15.90
2017-06-05T23:16:39.209Z,15.90
2017-06-05T23:19:07.317Z,16.00
2017-06-05T23:21:35.376Z,15.90
2017-06-05T23:24:03.453Z,15.90
2017-06-05T23:26:31.626Z,15.90
2017-06-05T23:28:59.673Z,16.00
2017-06-05T23:31:27.727Z,16.00
2017-06-05T23:33:56.660Z,15.80
2017-06-05T23:36:24.714Z,15.80
2017-06-05T23:38:52.805Z,15.60
2017-06-05T23:41:20.890Z,15.60
2017-06-05T23:43:48.962Z,15.60
2017-06-05T23:46:17.150Z,15.80
2017-06-05T23:48:45.242Z,15.80
2017-06-05T23:51:13.313Z,15.60
2017-06-05T23:53:41.435Z,15.40
2017-06-05T23:56:09.562Z,15.40
2017-06-05T23:58:37.637Z,15.30
